Brighton Township, Michigan
Current Conditions -  °F | °C
As of 3:15 PM on Sunday 21 Dec 2014 (Local Time) from KOZW Reporting Station
Overcast Overcast  
Wind Chill: 24°   Ceiling: 6000
Heat Index: 32°   Visibility: 7mi
Dew Point: 27°   Wind: 9mph
Humidity: 80%   Direction: 150°SSE
Pressure: 30.19"   Gusts: NA
Location:  42.5333°N, 83.7735°W
Report Text: KOZW 212015Z AUTO 15008KT 7SM OVC060 00/M03 A3019 RMK AO2 T00001030
Loading
Personal Weather Stations






























Interactive Weather Map New forecast layout! Learn more

10-Day Weather Forecast

Advertisements
Track Severe Weather on mobile